createdAt,value
2022-08-20T00:00:53.429Z,18.65
2022-08-20T00:03:32.711Z,18.25
2022-08-20T00:06:20.504Z,17.08
2022-08-20T00:08:47.858Z,14.73
2022-08-20T00:11:18.494Z,16.05
2022-08-20T00:13:49.688Z,15.15
2022-08-20T00:16:17.980Z,18.33
2022-08-20T00:18:45.858Z,14.98
2022-08-20T00:21:18.783Z,16.90
2022-08-20T00:23:49.221Z,15.77
2022-08-20T00:26:17.808Z,19.63
2022-08-20T00:28:44.920Z,18.48
2022-08-20T00:31:14.372Z,14.23
2022-08-20T00:33:41.612Z,16.67
2022-08-20T00:36:10.871Z,17.70
2022-08-20T00:38:42.308Z,15.27
2022-08-20T00:41:12.859Z,17.17
2022-08-20T00:43:43.461Z,20.00
2022-08-20T00:46:14.359Z,16.98
2022-08-20T00:48:43.164Z,24.33
2022-08-20T00:51:33.948Z,20.10
2022-08-20T00:54:08.918Z,17.50
2022-08-20T00:56:36.637Z,19.25
2022-08-20T00:59:06.136Z,18.85
2022-08-20T01:01:36.751Z,17.20
2022-08-20T01:04:21.416Z,18.27
2022-08-20T01:06:48.696Z,20.00
2022-08-20T01:09:15.812Z,26.60
2022-08-20T01:11:42.816Z,21.67
2022-08-20T01:14:31.108Z,19.92
2022-08-20T01:17:03.787Z,20.95
2022-08-20T01:19:41.347Z,19.55
2022-08-20T01:22:27.338Z,18.75
2022-08-20T01:25:09.047Z,21.20
2022-08-20T01:27:42.496Z,18.45
2022-08-20T01:30:10.306Z,19.02
2022-08-20T01:32:37.455Z,17.70
2022-08-20T01:35:05.863Z,19.10
2022-08-20T01:37:32.835Z,15.77
2022-08-20T01:39:59.988Z,15.23
2022-08-20T01:42:28.225Z,15.57
2022-08-20T01:44:55.288Z,14.75
2022-08-20T01:47:27.847Z,15.68
2022-08-20T01:49:59.869Z,16.48
2022-08-20T01:53:04.558Z,15.93
2022-08-20T01:55:32.498Z,17.05
2022-08-20T01:58:00.457Z,14.93
2022-08-20T02:00:28.013Z,14.15
2022-08-20T02:02:55.059Z,13.70
2022-08-20T02:05:22.954Z,15.52
2022-08-20T02:07:50.439Z,16.90
2022-08-20T02:10:18.565Z,13.18
2022-08-20T02:12:45.568Z,14.52
2022-08-20T02:15:13.006Z,19.48
2022-08-20T02:17:41.789Z,14.98
2022-08-20T02:20:16.959Z,14.75
2022-08-20T02:22:53.103Z,14.10
2022-08-20T02:25:24.727Z,14.95
2022-08-20T02:27:53.645Z,15.38
2022-08-20T02:30:30.418Z,14.88
2022-08-20T02:32:58.377Z,13.45
2022-08-20T02:35:25.677Z,17.75
2022-08-20T02:37:53.110Z,16.52
2022-08-20T02:40:30.441Z,16.90
2022-08-20T02:42:59.623Z,13.98
2022-08-20T02:45:27.350Z,14.80
2022-08-20T02:47:55.792Z,13.93
2022-08-20T02:50:24.026Z,14.00
2022-08-20T02:52:51.776Z,13.43
2022-08-20T02:55:27.897Z,13.70
2022-08-20T02:57:57.930Z,13.40
2022-08-20T03:00:27.375Z,14.63
2022-08-20T03:02:54.331Z,16.33
2022-08-20T03:05:21.240Z,17.10
2022-08-20T03:07:53.824Z,16.50
2022-08-20T03:10:27.012Z,16.02
2022-08-20T03:12:54.378Z,18.67
2022-08-20T03:15:21.415Z,14.85
2022-08-20T03:17:48.448Z,15.10
2022-08-20T03:20:15.629Z,16.67
2022-08-20T03:22:42.612Z,16.67
2022-08-20T03:25:10.336Z,17.67
2022-08-20T03:27:37.578Z,19.13
2022-08-20T03:30:07.763Z,17.98
2022-08-20T03:32:34.988Z,17.25
2022-08-20T03:35:02.117Z,17.67
2022-08-20T03:37:33.166Z,17.02
2022-08-20T03:40:00.927Z,17.48
2022-08-20T03:42:27.956Z,18.10
2022-08-20T03:44:59.030Z,18.65
2022-08-20T03:47:26.826Z,18.83
2022-08-20T03:50:01.487Z,19.17
2022-08-20T03:52:29.426Z,17.88
2022-08-20T03:54:57.257Z,18.40
2022-08-20T03:57:24.589Z,18.10
2022-08-20T03:59:58.006Z,17.00
2022-08-20T04:02:25.826Z,18.50
2022-08-20T04:04:53.098Z,18.60
2022-08-20T04:07:25.706Z,20.60
2022-08-20T04:09:53.816Z,20.33
2022-08-20T04:12:22.168Z,19.15
2022-08-20T04:14:49.789Z,23.60
2022-08-20T04:17:19.274Z,23.98
2022-08-20T04:19:47.539Z,24.67
2022-08-20T04:22:15.727Z,24.77
2022-08-20T04:24:43.157Z,24.10
2022-08-20T04:27:11.046Z,25.15
2022-08-20T04:29:43.033Z,24.92
2022-08-20T04:32:10.149Z,25.35
2022-08-20T04:34:37.171Z,28.13
2022-08-20T04:37:05.125Z,25.17
2022-08-20T04:39:32.743Z,23.33
2022-08-20T04:41:59.781Z,24.52
2022-08-20T04:44:27.505Z,25.20
2022-08-20T04:46:54.444Z,26.08
2022-08-20T04:49:26.415Z,24.85
2022-08-20T04:51:54.690Z,24.38
2022-08-20T04:54:21.879Z,25.42
2022-08-20T04:56:49.369Z,26.25
2022-08-20T04:59:16.400Z,24.75
2022-08-20T05:01:43.330Z,26.55
2022-08-20T05:04:10.387Z,24.88
2022-08-20T05:06:37.708Z,27.42
2022-08-20T05:09:05.758Z,27.15
2022-08-20T05:11:36.549Z,24.40
2022-08-20T05:14:06.069Z,24.77
2022-08-20T05:16:38.295Z,27.75
2022-08-20T05:19:08.730Z,24.58
2022-08-20T05:21:36.401Z,24.98
2022-08-20T05:24:03.717Z,26.17
2022-08-20T05:26:30.897Z,25.02
2022-08-20T05:28:59.435Z,24.15
2022-08-20T05:31:31.924Z,23.83
2022-08-20T05:34:11.030Z,24.25
2022-08-20T05:36:56.407Z,25.10
2022-08-20T05:39:23.666Z,25.48
2022-08-20T05:41:51.433Z,25.80
2022-08-20T05:44:19.010Z,26.10
2022-08-20T05:46:47.402Z,26.20
2022-08-20T05:49:21.339Z,26.13
2022-08-20T05:51:49.690Z,26.08
2022-08-20T05:54:17.025Z,26.05
2022-08-20T05:56:44.135Z,25.67
2022-08-20T05:59:12.619Z,26.90
2022-08-20T06:01:40.589Z,27.42
2022-08-20T06:04:27.332Z,27.02
2022-08-20T06:06:57.270Z,29.85
2022-08-20T06:09:28.618Z,29.08
2022-08-20T06:12:01.497Z,28.17
2022-08-20T06:14:28.646Z,29.13
2022-08-20T06:16:57.323Z,28.58
2022-08-20T06:19:26.962Z,27.38
2022-08-20T06:21:54.882Z,28.23
2022-08-20T06:24:21.939Z,29.25
2022-08-20T06:26:55.870Z,30.30
2022-08-20T06:29:23.044Z,29.70
2022-08-20T06:31:49.957Z,30.90
2022-08-20T06:34:18.141Z,31.00
2022-08-20T06:36:46.825Z,32.33
2022-08-20T06:39:15.246Z,31.30
2022-08-20T06:41:42.599Z,31.58
2022-08-20T06:44:10.330Z,31.42
2022-08-20T06:46:38.542Z,32.13
2022-08-20T06:49:06.959Z,31.05
2022-08-20T06:51:34.422Z,30.70
2022-08-20T06:54:01.498Z,30.33
2022-08-20T06:56:28.530Z,30.58
2022-08-20T06:58:55.644Z,32.03
2022-08-20T07:01:22.837Z,29.83
2022-08-20T07:03:55.349Z,30.92
2022-08-20T07:06:26.840Z,29.52
2022-08-20T07:08:55.846Z,30.70
2022-08-20T07:11:27.810Z,31.10
2022-08-20T07:13:56.915Z,30.08
2022-08-20T07:16:24.517Z,29.77
2022-08-20T07:18:51.625Z,30.70
2022-08-20T07:21:18.646Z,31.20
2022-08-20T07:23:45.980Z,30.08
2022-08-20T07:26:13.350Z,30.70
2022-08-20T07:28:40.658Z,30.88
2022-08-20T07:31:26.131Z,30.50
2022-08-20T07:33:54.272Z,31.27
2022-08-20T07:36:21.464Z,31.02
2022-08-20T07:38:50.953Z,32.47
2022-08-20T07:41:18.867Z,32.88
2022-08-20T07:43:46.463Z,32.35
2022-08-20T07:46:16.195Z,32.80
2022-08-20T07:48:50.477Z,32.28
2022-08-20T07:51:20.174Z,31.77
2022-08-20T07:53:48.253Z,34.20
2022-08-20T07:56:19.303Z,31.58
2022-08-20T07:58:52.871Z,33.80
2022-08-20T08:01:26.088Z,32.63
2022-08-20T08:03:53.300Z,31.58
2022-08-20T08:06:29.310Z,32.10
2022-08-20T08:09:09.521Z,31.15
2022-08-20T08:11:38.593Z,32.22
2022-08-20T08:14:07.288Z,32.25
2022-08-20T08:16:35.291Z,33.22
2022-08-20T08:19:05.200Z,33.15
2022-08-20T08:21:32.489Z,35.95
2022-08-20T08:23:59.647Z,34.00
2022-08-20T08:26:28.911Z,33.17
2022-08-20T08:28:58.073Z,32.67
2022-08-20T08:31:25.936Z,32.92
2022-08-20T08:33:53.338Z,30.25
2022-08-20T08:36:20.333Z,33.40
2022-08-20T08:38:47.411Z,36.72
2022-08-20T08:41:14.289Z,30.40
2022-08-20T08:43:41.451Z,30.00
2022-08-20T08:46:11.059Z,31.45
2022-08-20T08:48:44.468Z,33.55
2022-08-20T08:51:14.489Z,29.95
2022-08-20T08:53:53.465Z,34.63
2022-08-20T08:56:30.787Z,38.75
2022-08-20T08:59:15.650Z,35.20
2022-08-20T09:01:55.572Z,26.55
2022-08-20T09:04:35.186Z,26.80
2022-08-20T09:07:03.417Z,24.20
2022-08-20T09:09:37.084Z,21.27
2022-08-20T09:12:21.304Z,23.80
2022-08-20T09:14:49.431Z,25.67
2022-08-20T09:17:18.609Z,26.00
2022-08-20T09:19:45.908Z,26.20
2022-08-20T09:22:18.159Z,23.50
2022-08-20T09:24:45.436Z,24.80
2022-08-20T09:27:12.381Z,19.92
2022-08-20T09:29:39.917Z,24.88
2022-08-20T09:32:14.457Z,22.52
2022-08-20T09:34:43.913Z,20.67
2022-08-20T09:37:11.302Z,22.60
2022-08-20T09:39:38.243Z,22.95
2022-08-20T09:42:10.174Z,21.23
2022-08-20T09:44:37.533Z,19.52
2022-08-20T09:47:04.691Z,19.75
2022-08-20T09:49:31.925Z,18.55
2022-08-20T09:52:00.545Z,18.50
2022-08-20T09:54:30.227Z,22.98
2022-08-20T09:57:04.292Z,18.45
2022-08-20T09:59:32.040Z,18.85
2022-08-20T10:01:59.138Z,18.10
2022-08-20T10:04:26.208Z,21.08
2022-08-20T10:06:53.310Z,23.40
2022-08-20T10:09:20.348Z,24.13
2022-08-20T10:11:47.256Z,20.27
2022-08-20T10:14:14.347Z,21.67
2022-08-20T10:16:41.364Z,25.10
2022-08-20T10:19:08.659Z,37.72
2022-08-20T10:21:38.839Z,27.45
2022-08-20T10:24:06.445Z,20.35
2022-08-20T10:26:33.457Z,32.20
2022-08-20T10:29:00.378Z,24.55
2022-08-20T10:31:27.328Z,27.60
2022-08-20T10:33:54.433Z,20.30
2022-08-20T10:36:21.518Z,23.15
2022-08-20T10:38:49.188Z,19.42
2022-08-20T10:41:16.498Z,20.52
2022-08-20T10:43:43.457Z,19.92
2022-08-20T10:46:10.510Z,20.45
2022-08-20T10:48:38.253Z,19.52
2022-08-20T10:51:05.317Z,19.20
2022-08-20T10:53:32.903Z,19.80
2022-08-20T10:55:59.878Z,21.88
2022-08-20T10:58:37.482Z,21.45
2022-08-20T11:01:06.688Z,28.05
2022-08-20T11:03:34.055Z,21.00
2022-08-20T11:06:01.220Z,24.98
2022-08-20T11:08:33.543Z,20.52
2022-08-20T11:11:01.032Z,23.88
2022-08-20T11:13:27.989Z,22.27
2022-08-20T11:15:54.899Z,25.80
2022-08-20T11:18:21.809Z,23.05
2022-08-20T11:20:48.809Z,24.20
2022-08-20T11:23:15.851Z,23.38
2022-08-20T11:25:42.989Z,23.42
2022-08-20T11:28:10.082Z,23.73
2022-08-20T11:30:37.791Z,23.95
2022-08-20T11:33:05.488Z,25.65
2022-08-20T11:35:48.215Z,23.25
2022-08-20T11:38:17.788Z,23.60
2022-08-20T11:40:46.967Z,24.55
2022-08-20T11:43:16.343Z,26.42
2022-08-20T11:45:46.662Z,27.98
2022-08-20T11:48:13.892Z,29.60
2022-08-20T11:50:40.868Z,30.38
2022-08-20T11:53:08.161Z,31.42
2022-08-20T11:55:35.591Z,32.10
2022-08-20T11:58:02.605Z,30.83
2022-08-20T12:00:33.047Z,30.75
2022-08-20T12:03:01.440Z,31.27
2022-08-20T12:05:30.213Z,30.80
2022-08-20T12:07:58.140Z,32.75
2022-08-20T12:10:26.900Z,32.53
2022-08-20T12:12:54.810Z,35.03
2022-08-20T12:15:21.829Z,35.83
2022-08-20T12:17:48.788Z,37.95
2022-08-20T12:20:16.533Z,36.55
2022-08-20T12:22:44.696Z,38.45
2022-08-20T12:25:13.253Z,36.92
2022-08-20T12:27:41.281Z,37.97
2022-08-20T12:30:14.160Z,38.05
2022-08-20T12:32:42.438Z,38.35
2022-08-20T12:35:10.708Z,39.10
2022-08-20T12:37:38.382Z,39.75
2022-08-20T12:40:09.387Z,37.20
2022-08-20T12:42:36.935Z,36.88
2022-08-20T12:45:04.957Z,36.42
2022-08-20T12:47:34.410Z,34.40
2022-08-20T12:50:07.798Z,33.92
2022-08-20T12:52:35.228Z,35.65
2022-08-20T12:55:03.529Z,35.72
2022-08-20T12:57:33.677Z,34.85
2022-08-20T13:00:11.029Z,33.97
2022-08-20T13:02:38.869Z,32.75
2022-08-20T13:05:06.992Z,32.47
2022-08-20T13:07:34.786Z,30.83
2022-08-20T13:10:02.498Z,31.48
2022-08-20T13:12:29.518Z,31.77
2022-08-20T13:14:56.635Z,30.13
2022-08-20T13:17:32.756Z,30.25
2022-08-20T13:20:12.914Z,29.80
2022-08-20T13:22:41.470Z,30.88
2022-08-20T13:25:10.099Z,32.15
2022-08-20T13:27:40.640Z,33.20
2022-08-20T13:30:09.066Z,31.25
2022-08-20T13:32:36.184Z,30.13
2022-08-20T13:35:03.461Z,27.48
2022-08-20T13:37:30.823Z,27.95
2022-08-20T13:39:58.810Z,28.10
2022-08-20T13:42:27.141Z,28.45
2022-08-20T13:44:54.536Z,28.98
2022-08-20T13:47:30.821Z,28.75
2022-08-20T13:50:00.463Z,30.55
2022-08-20T13:52:27.968Z,27.75
2022-08-20T13:54:55.295Z,29.17
2022-08-20T13:57:24.838Z,29.45
2022-08-20T13:59:55.219Z,29.13
2022-08-20T14:02:22.438Z,28.20
2022-08-20T14:04:50.557Z,26.02
2022-08-20T14:07:32.243Z,26.25
2022-08-20T14:10:09.647Z,26.15
2022-08-20T14:12:36.748Z,26.25
2022-08-20T14:15:04.194Z,25.25
2022-08-20T14:17:35.007Z,28.23
2022-08-20T14:20:08.575Z,29.13
2022-08-20T14:22:36.954Z,35.65
2022-08-20T14:25:05.809Z,38.33
2022-08-20T14:27:33.971Z,33.38
2022-08-20T14:30:01.901Z,33.50
2022-08-20T14:32:28.817Z,30.23
2022-08-20T14:34:58.366Z,32.95
2022-08-20T14:37:29.264Z,32.85
2022-08-20T14:39:58.165Z,30.02
2022-08-20T14:42:27.133Z,34.42
2022-08-20T14:44:55.596Z,31.10
2022-08-20T14:47:31.382Z,30.42
2022-08-20T14:50:04.773Z,30.73
2022-08-20T14:52:32.996Z,30.25
2022-08-20T14:55:00.149Z,28.38
2022-08-20T14:57:27.739Z,28.40
2022-08-20T14:59:54.676Z,28.35
2022-08-20T15:02:22.361Z,30.40
2022-08-20T15:04:54.042Z,29.05
2022-08-20T15:07:28.576Z,30.65
2022-08-20T15:09:56.138Z,34.03
2022-08-20T15:12:24.305Z,31.08
2022-08-20T15:14:51.605Z,29.27
2022-08-20T15:17:19.889Z,33.60
2022-08-20T15:19:47.116Z,33.90
2022-08-20T15:22:14.400Z,30.20
2022-08-20T15:24:41.414Z,27.17
2022-08-20T15:27:23.048Z,29.13
2022-08-20T15:29:53.343Z,30.63
2022-08-20T15:32:21.566Z,36.45
2022-08-20T15:34:49.214Z,26.63
2022-08-20T15:37:18.861Z,28.23
2022-08-20T15:39:45.998Z,26.48
2022-08-20T15:42:13.919Z,28.88
2022-08-20T15:44:42.674Z,25.35
2022-08-20T15:47:31.654Z,26.50
2022-08-20T15:50:14.207Z,25.83
2022-08-20T15:52:43.308Z,27.20
2022-08-20T15:55:13.395Z,25.02
2022-08-20T15:57:56.469Z,25.35
2022-08-20T16:00:31.277Z,25.40
2022-08-20T16:03:06.127Z,26.35
2022-08-20T16:06:13.822Z,27.00
2022-08-20T16:08:58.386Z,24.70
2022-08-20T16:11:43.984Z,23.90
2022-08-20T16:14:30.928Z,23.38
2022-08-20T16:17:10.267Z,23.88
2022-08-20T16:20:02.137Z,25.08
2022-08-20T16:24:57.121Z,26.83
2022-08-20T16:27:39.393Z,29.60
2022-08-20T16:30:20.944Z,25.58
2022-08-20T16:32:57.822Z,25.48
2022-08-20T16:35:35.178Z,27.42
2022-08-20T16:38:23.474Z,28.17
2022-08-20T16:40:57.326Z,26.88
2022-08-20T16:43:41.510Z,27.42
2022-08-20T16:46:16.861Z,35.60
2022-08-20T16:48:58.040Z,34.20
2022-08-20T16:51:37.358Z,35.33
2022-08-20T16:54:04.860Z,30.60
2022-08-20T16:56:39.201Z,34.80
2022-08-20T16:59:24.656Z,30.17
2022-08-20T17:02:10.516Z,31.55
2022-08-20T17:04:59.173Z,32.83
2022-08-20T17:07:33.586Z,31.70
2022-08-20T17:10:20.467Z,31.73
2022-08-20T17:13:00.045Z,32.97
2022-08-20T17:15:30.044Z,30.83
2022-08-20T17:17:57.345Z,31.63
2022-08-20T17:20:28.130Z,29.75
2022-08-20T17:23:09.244Z,30.60
2022-08-20T17:25:40.097Z,32.38
2022-08-20T17:28:20.464Z,33.33
2022-08-20T17:30:47.553Z,34.72
2022-08-20T17:33:29.151Z,32.30
2022-08-20T17:38:33.062Z,32.95
2022-08-20T17:41:02.963Z,33.25
2022-08-20T17:43:33.029Z,34.97
2022-08-20T17:46:04.426Z,33.20
2022-08-20T17:48:45.656Z,34.38
2022-08-20T17:51:26.861Z,33.83
2022-08-20T17:53:57.701Z,34.67
2022-08-20T17:56:31.794Z,33.85
2022-08-20T18:00:00.664Z,34.38
2022-08-20T18:02:23.090Z,32.88
2022-08-20T18:04:52.012Z,33.63
2022-08-20T18:07:30.494Z,34.13
2022-08-20T18:10:15.114Z,35.58
2022-08-20T18:13:03.413Z,34.33
2022-08-20T18:15:58.663Z,34.30
2022-08-20T18:18:34.418Z,34.55
2022-08-20T18:21:28.991Z,31.95
2022-08-20T18:24:07.778Z,31.25
2022-08-20T18:26:45.396Z,32.30
2022-08-20T18:29:27.513Z,30.13
2022-08-20T18:32:00.304Z,31.23
2022-08-20T18:34:30.057Z,31.73
2022-08-20T18:37:02.573Z,32.65
2022-08-20T18:39:33.019Z,32.05
2022-08-20T18:42:07.516Z,32.38
2022-08-20T18:44:49.734Z,32.90
2022-08-20T18:47:37.006Z,33.00
2022-08-20T18:50:16.144Z,33.90
2022-08-20T18:52:53.101Z,33.63
2022-08-20T18:55:31.536Z,32.75
2022-08-20T18:58:02.846Z,29.88
2022-08-20T19:00:49.107Z,30.65
2022-08-20T19:03:20.741Z,29.17
2022-08-20T19:08:20.867Z,29.42
2022-08-20T19:10:52.771Z,30.40
2022-08-20T19:13:46.255Z,32.05
2022-08-20T19:16:36.544Z,33.13
2022-08-20T19:19:03.746Z,31.63
2022-08-20T19:21:37.602Z,32.95
2022-08-20T19:24:07.192Z,32.60
2022-08-20T19:26:41.928Z,34.15
2022-08-20T19:29:15.578Z,33.40
2022-08-20T19:31:42.836Z,34.08
2022-08-20T19:34:19.748Z,33.63
2022-08-20T19:37:27.538Z,34.35
2022-08-20T19:39:55.152Z,34.95
2022-08-20T19:42:31.537Z,34.25
2022-08-20T19:45:08.293Z,36.47
2022-08-20T19:47:51.345Z,36.08
2022-08-20T19:50:48.186Z,36.92
2022-08-20T19:53:45.098Z,37.47
2022-08-20T19:56:23.748Z,37.92
2022-08-20T19:59:04.722Z,37.45
2022-08-20T20:01:33.037Z,37.90
2022-08-20T20:04:06.937Z,39.38
2022-08-20T20:06:37.378Z,39.05
2022-08-20T20:09:26.900Z,40.90
2022-08-20T20:12:04.694Z,41.90
2022-08-20T20:14:36.388Z,40.78
2022-08-20T20:19:56.511Z,40.70
2022-08-20T20:22:36.331Z,40.20
2022-08-20T20:25:22.163Z,38.65
2022-08-20T20:27:51.972Z,40.55
2022-08-20T20:30:31.713Z,38.30
2022-08-20T20:33:01.380Z,38.88
2022-08-20T20:35:34.971Z,38.00
2022-08-20T20:38:09.553Z,39.50
2022-08-20T20:40:52.090Z,42.58
2022-08-20T20:43:29.630Z,39.63
2022-08-20T20:46:23.046Z,39.88
2022-08-20T20:49:16.816Z,38.28
2022-08-20T20:52:13.222Z,41.05
2022-08-20T20:54:44.719Z,42.10
2022-08-20T20:57:37.998Z,42.10
2022-08-20T21:00:17.546Z,37.78
2022-08-20T21:02:46.176Z,40.88
2022-08-20T21:05:16.669Z,42.33
2022-08-20T21:07:50.475Z,41.30
2022-08-20T21:10:20.371Z,39.50
2022-08-20T21:12:52.442Z,40.08
2022-08-20T21:15:22.383Z,41.33
2022-08-20T21:17:49.418Z,42.17
2022-08-20T21:20:16.586Z,40.95
2022-08-20T21:22:43.706Z,45.00
2022-08-20T21:25:10.786Z,40.95
2022-08-20T21:27:38.310Z,44.00
2022-08-20T21:30:06.354Z,42.67
2022-08-20T21:32:33.247Z,41.13
2022-08-20T21:35:00.363Z,40.42
2022-08-20T21:37:27.493Z,43.35
2022-08-20T21:39:54.801Z,42.58
2022-08-20T21:42:29.301Z,40.22
2022-08-20T21:44:58.326Z,42.30
2022-08-20T21:47:26.069Z,42.40
2022-08-20T21:49:53.235Z,46.28
2022-08-20T21:52:20.674Z,46.65
2022-08-20T21:54:47.610Z,48.53
2022-08-20T21:57:25.179Z,45.75
2022-08-20T21:59:52.386Z,43.30
2022-08-20T22:02:19.616Z,42.30
2022-08-20T22:04:46.687Z,43.22
2022-08-20T22:07:13.888Z,44.05
2022-08-20T22:09:40.948Z,42.83
2022-08-20T22:12:17.761Z,43.90
2022-08-20T22:14:45.254Z,47.97
2022-08-20T22:17:13.276Z,37.70
2022-08-20T22:19:40.438Z,41.92
2022-08-20T22:22:10.776Z,41.33
2022-08-20T22:24:38.180Z,39.15
2022-08-20T22:27:06.157Z,42.03
2022-08-20T22:29:33.342Z,41.88
2022-08-20T22:32:00.550Z,40.67
2022-08-20T22:34:29.281Z,46.45
2022-08-20T22:36:57.606Z,44.72
2022-08-20T22:39:24.505Z,46.92
2022-08-20T22:41:51.499Z,44.55
2022-08-20T22:44:18.436Z,39.78
2022-08-20T22:46:48.261Z,35.47
2022-08-20T22:49:19.277Z,30.50
2022-08-20T22:51:46.305Z,23.77
2022-08-20T22:54:16.808Z,20.45
2022-08-20T22:56:43.889Z,23.05
2022-08-20T22:59:10.835Z,20.95
2022-08-20T23:01:38.392Z,24.15
2022-08-20T23:04:12.570Z,20.40
2022-08-20T23:06:40.052Z,18.42
2022-08-20T23:09:07.059Z,16.30
2022-08-20T23:11:34.065Z,12.25
2022-08-20T23:14:01.030Z,12.20
2022-08-20T23:16:28.078Z,11.95
2022-08-20T23:18:55.138Z,12.45
2022-08-20T23:21:22.138Z,10.95
2022-08-20T23:23:49.100Z,11.82
2022-08-20T23:26:19.801Z,12.10
2022-08-20T23:28:46.948Z,11.65
2022-08-20T23:31:14.099Z,11.27
2022-08-20T23:33:44.699Z,11.60
2022-08-20T23:36:12.594Z,11.43
2022-08-20T23:38:39.614Z,12.27
2022-08-20T23:41:06.638Z,11.95
2022-08-20T23:43:33.686Z,11.77
2022-08-20T23:46:03.593Z,11.07
2022-08-20T23:48:30.637Z,10.70
2022-08-20T23:50:57.647Z,11.40
2022-08-20T23:53:24.885Z,11.20
2022-08-20T23:55:51.845Z,10.95
2022-08-20T23:58:19.199Z,11.38
